createdAt,value
2019-04-28T00:02:02.735Z,77.83
2019-04-28T00:04:31.530Z,78.14
2019-04-28T00:06:58.907Z,78.41
2019-04-28T00:09:26.556Z,77.97
2019-04-28T00:11:53.965Z,78.37
2019-04-28T00:14:22.055Z,78.21
2019-04-28T00:16:51.187Z,79.10
2019-04-28T00:19:20.911Z,78.91
2019-04-28T00:21:54.274Z,78.15
2019-04-28T00:24:32.701Z,78.01
2019-04-28T00:27:02.241Z,78.52
2019-04-28T00:29:38.627Z,78.20
2019-04-28T00:31:58.715Z,78.51
2019-04-28T00:34:26.012Z,78.56
2019-04-28T00:37:02.003Z,78.45
2019-04-28T00:39:30.939Z,78.85
2019-04-28T00:41:58.444Z,78.91
2019-04-28T00:44:26.205Z,78.74
2019-04-28T00:46:53.554Z,78.72
2019-04-28T00:49:41.763Z,78.27
2019-04-28T00:52:10.837Z,79.03
2019-04-28T00:54:38.004Z,79.10
2019-04-28T00:57:05.531Z,79.43
2019-04-28T00:59:33.015Z,79.26
2019-04-28T01:02:05.055Z,78.62
2019-04-28T01:04:32.730Z,77.85
2019-04-28T01:07:01.641Z,77.99
2019-04-28T01:09:29.357Z,78.72
2019-04-28T01:11:56.844Z,78.75
2019-04-28T01:14:24.511Z,78.53
2019-04-28T01:16:59.843Z,77.84
2019-04-28T01:19:31.554Z,77.77
2019-04-28T01:22:12.824Z,78.43
2019-04-28T01:24:41.061Z,78.56
2019-04-28T01:27:20.403Z,78.50
2019-04-28T01:29:49.870Z,78.08
2019-04-28T01:32:36.544Z,77.44
2019-04-28T01:35:05.228Z,78.19
2019-04-28T01:37:32.371Z,77.87
2019-04-28T01:39:59.847Z,77.86
2019-04-28T01:42:27.194Z,78.35
2019-04-28T01:45:01.783Z,78.06
2019-04-28T01:47:30.640Z,77.58
2019-04-28T01:49:57.893Z,78.00
2019-04-28T01:52:25.152Z,77.48
2019-04-28T01:54:52.519Z,77.57
2019-04-28T01:57:21.488Z,77.88
2019-04-28T01:59:50.580Z,77.76
2019-04-28T02:02:19.985Z,77.40
2019-04-28T02:04:49.924Z,77.08
2019-04-28T02:07:20.546Z,77.23
2019-04-28T02:09:52.857Z,76.83
2019-04-28T02:12:20.886Z,77.27
2019-04-28T02:14:49.985Z,77.79
2019-04-28T02:17:20.292Z,77.04
2019-04-28T02:19:47.881Z,76.28
2019-04-28T02:22:24.479Z,76.43
2019-04-28T02:24:51.832Z,76.54
2019-04-28T02:27:20.336Z,76.53
2019-04-28T02:29:47.671Z,76.79
2019-04-28T02:32:14.832Z,76.44
2019-04-28T02:34:42.717Z,76.61
2019-04-28T02:37:11.346Z,77.29
2019-04-28T02:39:40.879Z,77.45
2019-04-28T02:42:10.670Z,76.94
2019-04-28T02:44:40.244Z,77.07
2019-04-28T02:47:06.887Z,77.63
2019-04-28T02:49:53.918Z,76.62
2019-04-28T02:52:41.448Z,76.74
2019-04-28T02:55:11.255Z,76.74
2019-04-28T02:57:40.645Z,77.01
2019-04-28T03:00:10.137Z,76.81
2019-04-28T03:02:37.094Z,76.52
2019-04-28T03:05:05.814Z,76.80
2019-04-28T03:07:33.083Z,76.98
2019-04-28T03:10:03.473Z,76.48
2019-04-28T03:12:31.435Z,76.40
2019-04-28T03:15:00.613Z,76.37
2019-04-28T03:17:30.992Z,76.21
2019-04-28T03:19:57.654Z,76.51
2019-04-28T03:22:25.142Z,76.67
2019-04-28T03:24:54.321Z,76.88
2019-04-28T03:27:35.043Z,76.16
2019-04-28T03:30:13.259Z,76.83
2019-04-28T03:32:53.071Z,76.28
2019-04-28T03:35:13.627Z,76.46
2019-04-28T03:37:41.448Z,76.89
2019-04-28T03:40:10.875Z,76.94
2019-04-28T03:42:40.955Z,76.77
2019-04-28T03:45:15.378Z,77.57
2019-04-28T03:47:42.649Z,76.93
2019-04-28T03:50:10.616Z,76.97
2019-04-28T03:52:37.869Z,76.61
2019-04-28T03:55:05.329Z,76.53
2019-04-28T03:57:32.828Z,76.62
2019-04-28T04:00:01.445Z,76.76
2019-04-28T04:02:31.196Z,76.58
2019-04-28T04:05:00.780Z,76.41
2019-04-28T04:07:27.435Z,76.70
2019-04-28T04:10:11.329Z,76.72
2019-04-28T04:12:47.343Z,76.93
2019-04-28T04:15:46.737Z,76.93
2019-04-28T04:18:20.723Z,76.91
2019-04-28T04:20:47.848Z,77.03
2019-04-28T04:23:15.245Z,76.48
2019-04-28T04:25:42.623Z,77.47
2019-04-28T04:28:10.551Z,77.28
2019-04-28T04:30:40.609Z,76.99
2019-04-28T04:33:07.365Z,76.90
2019-04-28T04:35:34.705Z,76.74
2019-04-28T04:38:02.202Z,76.76
2019-04-28T04:40:31.737Z,76.81
2019-04-28T04:43:01.265Z,77.42
2019-04-28T04:45:30.400Z,76.65
2019-04-28T04:47:57.117Z,76.90
2019-04-28T04:50:24.388Z,77.21
2019-04-28T04:52:51.650Z,76.83
2019-04-28T04:55:21.156Z,76.90
2019-04-28T04:57:50.614Z,77.70
2019-04-28T05:00:30.659Z,77.68
2019-04-28T05:03:10.474Z,77.25
2019-04-28T05:05:40.373Z,77.30
2019-04-28T05:08:07.677Z,76.66
2019-04-28T05:10:34.933Z,76.87
2019-04-28T05:13:02.191Z,77.09
2019-04-28T05:15:30.382Z,77.10
2019-04-28T05:17:57.934Z,76.94
2019-04-28T05:20:25.300Z,77.11
2019-04-28T05:23:02.798Z,77.05
2019-04-28T05:25:35.186Z,76.83
2019-04-28T05:28:03.131Z,76.79
2019-04-28T05:30:30.355Z,76.60
2019-04-28T05:32:57.550Z,76.21
2019-04-28T05:35:25.230Z,76.40
2019-04-28T05:37:52.430Z,76.25
2019-04-28T05:40:20.581Z,76.46
2019-04-28T05:43:01.058Z,76.19
2019-04-28T05:45:31.901Z,76.00
2019-04-28T05:47:59.782Z,75.97
2019-04-28T05:50:50.119Z,75.30
2019-04-28T05:53:27.070Z,74.94
2019-04-28T05:56:10.282Z,75.06
2019-04-28T05:58:50.445Z,74.44
2019-04-28T06:01:40.696Z,73.88
2019-04-28T06:04:09.591Z,74.43
2019-04-28T06:06:40.554Z,73.74
2019-04-28T06:09:26.591Z,73.47
2019-04-28T06:11:54.632Z,73.70
2019-04-28T06:14:22.019Z,73.92
2019-04-28T06:16:50.656Z,73.73
2019-04-28T06:19:17.904Z,72.12
2019-04-28T06:21:45.170Z,72.58
2019-04-28T06:24:12.429Z,72.55
2019-04-28T06:26:39.602Z,72.62
2019-04-28T06:29:07.058Z,73.33
2019-04-28T06:31:34.475Z,72.35
2019-04-28T06:34:01.881Z,72.05
2019-04-28T06:36:29.127Z,72.40
2019-04-28T06:38:56.386Z,72.04
2019-04-28T06:41:23.651Z,71.77
2019-04-28T06:43:51.019Z,71.39
2019-04-28T06:46:18.292Z,70.21
2019-04-28T06:48:45.557Z,69.55
2019-04-28T06:51:13.114Z,70.55
2019-04-28T06:53:40.448Z,71.17
2019-04-28T06:56:07.680Z,68.80
2019-04-28T06:58:34.982Z,68.06
2019-04-28T07:01:02.659Z,67.46
2019-04-28T07:03:29.802Z,68.85
2019-04-28T07:05:57.064Z,67.42
2019-04-28T07:08:24.213Z,67.81
2019-04-28T07:10:51.715Z,67.98
2019-04-28T07:13:20.670Z,67.76
2019-04-28T07:15:48.309Z,66.33
2019-04-28T07:18:15.556Z,65.13
2019-04-28T07:20:52.711Z,65.48
2019-04-28T07:23:20.093Z,66.19
2019-04-28T07:25:47.241Z,66.05
2019-04-28T07:28:14.500Z,65.68
2019-04-28T07:30:41.883Z,65.13
2019-04-28T07:33:09.694Z,66.28
2019-04-28T07:35:36.869Z,65.19
2019-04-28T07:38:04.391Z,65.12
2019-04-28T07:40:32.093Z,65.40
2019-04-28T07:42:59.469Z,64.54
2019-04-28T07:45:26.771Z,64.25
2019-04-28T07:47:54.141Z,64.37
2019-04-28T07:50:23.089Z,63.83
2019-04-28T07:53:12.695Z,63.88
2019-04-28T07:55:39.858Z,64.57
2019-04-28T07:58:07.227Z,63.53
2019-04-28T08:00:34.695Z,64.33
2019-04-28T08:03:01.993Z,64.77
2019-04-28T08:05:29.257Z,63.27
2019-04-28T08:07:56.646Z,62.98
2019-04-28T08:10:24.124Z,63.43
2019-04-28T08:12:51.303Z,63.29
2019-04-28T08:15:18.790Z,63.22
2019-04-28T08:17:45.943Z,63.44
2019-04-28T08:20:14.314Z,61.77
2019-04-28T08:22:41.581Z,61.24
2019-04-28T08:25:10.835Z,62.20
2019-04-28T08:27:38.242Z,61.03
2019-04-28T08:30:06.429Z,60.20
2019-04-28T08:32:43.308Z,60.97
2019-04-28T08:35:11.361Z,60.17
2019-04-28T08:37:38.790Z,60.93
2019-04-28T08:40:06.451Z,59.66
2019-04-28T08:42:33.847Z,59.07
2019-04-28T08:45:01.104Z,58.87
2019-04-28T08:47:28.465Z,59.48
2019-04-28T08:49:55.809Z,58.37
2019-04-28T08:52:23.313Z,57.73
2019-04-28T08:54:50.579Z,57.97
2019-04-28T08:57:17.985Z,58.77
2019-04-28T08:59:45.290Z,57.60
2019-04-28T09:02:12.666Z,58.40
2019-04-28T09:04:39.892Z,57.26
2019-04-28T09:07:07.232Z,57.39
2019-04-28T09:09:34.640Z,58.96
2019-04-28T09:12:02.021Z,57.82
2019-04-28T09:14:29.411Z,57.48
2019-04-28T09:16:56.805Z,57.49
2019-04-28T09:19:23.967Z,57.92
2019-04-28T09:21:51.251Z,55.58
2019-04-28T09:24:18.699Z,57.32
2019-04-28T09:26:45.954Z,56.84
2019-04-28T09:29:13.118Z,55.66
2019-04-28T09:31:40.403Z,56.53
2019-04-28T09:34:07.775Z,56.02
2019-04-28T09:36:35.156Z,55.33
2019-04-28T09:39:05.575Z,55.11
2019-04-28T09:41:33.761Z,53.78
2019-04-28T09:44:07.193Z,56.18
2019-04-28T09:46:36.917Z,52.36
2019-04-28T09:49:04.424Z,54.85
2019-04-28T09:51:31.898Z,54.52
2019-04-28T09:53:59.057Z,55.17
2019-04-28T09:56:26.553Z,55.34
2019-04-28T09:58:53.933Z,55.13
2019-04-28T10:01:21.733Z,54.03
2019-04-28T10:03:49.074Z,53.41
2019-04-28T10:06:16.434Z,53.28
2019-04-28T10:08:43.659Z,52.21
2019-04-28T10:11:10.950Z,52.52
2019-04-28T10:13:38.158Z,51.07
2019-04-28T10:16:05.635Z,49.90
2019-04-28T10:18:33.003Z,52.21
2019-04-28T10:21:13.437Z,51.53
2019-04-28T10:23:41.239Z,50.69
2019-04-28T10:26:08.690Z,50.16
2019-04-28T10:28:36.124Z,49.92
2019-04-28T10:31:05.643Z,50.75
2019-04-28T10:33:33.151Z,50.68
2019-04-28T10:36:00.564Z,50.53
2019-04-28T10:38:28.050Z,48.74
2019-04-28T10:41:00.855Z,49.46
2019-04-28T10:43:28.346Z,48.98
2019-04-28T10:45:56.014Z,47.62
2019-04-28T10:48:23.378Z,46.17
2019-04-28T10:50:50.589Z,45.53
2019-04-28T10:53:17.883Z,42.27
2019-04-28T10:55:45.360Z,42.71
2019-04-28T10:58:12.860Z,40.89
2019-04-28T11:00:41.043Z,37.14
2019-04-28T11:03:22.834Z,39.08
2019-04-28T11:05:50.409Z,40.62
2019-04-28T11:08:25.459Z,40.25
2019-04-28T11:10:53.294Z,42.80
2019-04-28T11:13:20.981Z,42.35
2019-04-28T11:15:48.308Z,45.09
2019-04-28T11:18:16.029Z,45.80
2019-04-28T11:20:46.550Z,47.21
2019-04-28T11:23:13.846Z,47.47
2019-04-28T11:25:41.240Z,47.77
2019-04-28T11:28:08.998Z,48.49
2019-04-28T11:30:36.480Z,48.35
2019-04-28T11:33:26.322Z,47.73
2019-04-28T11:35:53.618Z,47.06
2019-04-28T11:38:21.010Z,48.06
2019-04-28T11:40:48.391Z,48.72
2019-04-28T11:43:17.090Z,48.46
2019-04-28T11:45:48.047Z,49.57
2019-04-28T11:48:15.403Z,49.97
2019-04-28T11:50:42.654Z,49.37
2019-04-28T11:53:09.918Z,49.90
2019-04-28T11:55:37.508Z,50.69
2019-04-28T11:58:05.450Z,49.67
2019-04-28T12:00:33.720Z,49.87
2019-04-28T12:03:01.392Z,50.44
2019-04-28T12:05:46.401Z,50.36
2019-04-28T12:08:13.814Z,51.11
2019-04-28T12:10:47.044Z,50.92
2019-04-28T12:13:34.331Z,50.62
2019-04-28T12:16:24.681Z,50.47
2019-04-28T12:20:41.283Z,50.53
2019-04-28T12:23:09.847Z,49.79
2019-04-28T12:25:37.377Z,50.34
2019-04-28T12:28:04.760Z,50.24
2019-04-28T12:30:32.256Z,48.59
2019-04-28T12:32:59.499Z,47.39
2019-04-28T12:35:26.886Z,48.96
2019-04-28T12:37:54.293Z,46.77
2019-04-28T12:40:22.661Z,48.28
2019-04-28T12:42:49.977Z,44.02
2019-04-28T12:45:17.282Z,41.25
2019-04-28T12:47:44.603Z,46.99
2019-04-28T12:50:18.819Z,45.86
2019-04-28T12:52:46.116Z,45.24
2019-04-28T12:55:13.396Z,45.44
2019-04-28T12:57:40.666Z,44.79
2019-04-28T13:00:31.723Z,45.08
2019-04-28T13:03:15.109Z,44.89
2019-04-28T13:05:44.232Z,45.59
2019-04-28T13:08:11.642Z,44.57
2019-04-28T13:10:38.863Z,42.20
2019-04-28T13:13:06.466Z,43.86
2019-04-28T13:15:33.916Z,43.88
2019-04-28T13:18:01.294Z,41.90
2019-04-28T13:20:28.616Z,44.18
2019-04-28T13:22:56.030Z,42.65
2019-04-28T13:25:23.501Z,43.15
2019-04-28T13:27:50.748Z,43.27
2019-04-28T13:30:18.519Z,42.98
2019-04-28T13:32:45.854Z,41.84
2019-04-28T13:35:14.516Z,40.13
2019-04-28T13:37:41.857Z,41.88
2019-04-28T13:40:15.378Z,42.10
2019-04-28T13:42:42.803Z,42.15
2019-04-28T13:45:14.966Z,43.07
2019-04-28T13:47:42.130Z,39.10
2019-04-28T13:50:16.190Z,38.81
2019-04-28T13:52:45.108Z,41.48
2019-04-28T13:55:37.428Z,41.69
2019-04-28T13:58:04.834Z,41.61
2019-04-28T14:00:47.235Z,40.04
2019-04-28T14:03:25.115Z,41.80
2019-04-28T14:06:00.592Z,41.38
2019-04-28T14:08:27.866Z,42.33
2019-04-28T14:10:57.000Z,41.92
2019-04-28T14:13:24.471Z,42.15
2019-04-28T14:15:52.301Z,41.65
2019-04-28T14:18:20.257Z,41.85
2019-04-28T14:20:47.824Z,42.93
2019-04-28T14:23:17.885Z,41.04
2019-04-28T14:25:45.893Z,41.15
2019-04-28T14:28:20.070Z,38.41
2019-04-28T14:30:47.422Z,43.12
2019-04-28T14:33:16.485Z,40.15
2019-04-28T14:35:43.736Z,42.58
2019-04-28T14:38:11.201Z,44.38
2019-04-28T14:40:40.303Z,42.20
2019-04-28T14:43:07.643Z,42.37
2019-04-28T14:45:35.017Z,41.60
2019-04-28T14:48:02.686Z,42.86
2019-04-28T14:50:30.537Z,44.21
2019-04-28T14:52:57.696Z,42.44
2019-04-28T14:55:24.903Z,43.38
2019-04-28T14:57:52.781Z,41.73
2019-04-28T15:00:24.599Z,42.89
2019-04-28T15:02:59.444Z,41.47
2019-04-28T15:05:39.276Z,43.67
2019-04-28T15:08:25.247Z,43.94
2019-04-28T15:11:21.233Z,43.40
2019-04-28T15:13:48.518Z,43.90
2019-04-28T15:16:16.066Z,44.55
2019-04-28T15:18:47.453Z,44.60
2019-04-28T15:21:14.847Z,43.55
2019-04-28T15:23:42.172Z,42.14
2019-04-28T15:26:09.420Z,42.59
2019-04-28T15:28:36.760Z,43.21
2019-04-28T15:31:04.160Z,41.54
2019-04-28T15:33:31.491Z,41.64
2019-04-28T15:35:58.889Z,42.82
2019-04-28T15:38:26.400Z,43.43
2019-04-28T15:40:53.825Z,43.89
2019-04-28T15:43:21.131Z,43.15
2019-04-28T15:45:48.574Z,43.13
2019-04-28T15:48:16.113Z,42.58
2019-04-28T15:50:43.613Z,41.68
2019-04-28T15:53:10.952Z,43.49
2019-04-28T15:55:47.814Z,42.53
2019-04-28T15:58:33.508Z,42.51
2019-04-28T16:01:01.571Z,43.04
2019-04-28T16:03:29.135Z,41.87
2019-04-28T16:05:59.779Z,41.42
2019-04-28T16:08:26.329Z,39.37
2019-04-28T16:10:54.112Z,41.37
2019-04-28T16:13:21.864Z,42.10
2019-04-28T16:15:49.624Z,41.57
2019-04-28T16:18:17.208Z,40.21
2019-04-28T16:20:44.729Z,40.93
2019-04-28T16:23:12.005Z,41.52
2019-04-28T16:25:40.412Z,41.26
2019-04-28T16:28:07.849Z,41.82
2019-04-28T16:30:35.378Z,43.07
2019-04-28T16:33:02.931Z,42.63
2019-04-28T16:35:30.409Z,40.18
2019-04-28T16:37:57.907Z,42.98
2019-04-28T16:40:39.252Z,43.74
2019-04-28T16:43:20.482Z,43.46
2019-04-28T16:45:47.638Z,44.10
2019-04-28T16:48:14.938Z,43.96
2019-04-28T16:50:42.181Z,40.96
2019-04-28T16:53:09.511Z,43.39
2019-04-28T16:55:57.597Z,43.86
2019-04-28T16:58:37.272Z,45.16
2019-04-28T17:01:24.704Z,41.56
2019-04-28T17:03:52.482Z,44.61
2019-04-28T17:06:20.285Z,45.11
2019-04-28T17:08:47.929Z,45.72
2019-04-28T17:11:15.603Z,46.17
2019-04-28T17:13:43.344Z,45.96
2019-04-28T17:16:11.119Z,46.22
2019-04-28T17:18:38.671Z,46.08
2019-04-28T17:21:06.743Z,45.67
2019-04-28T17:23:34.106Z,46.38
2019-04-28T17:26:01.898Z,46.26
2019-04-28T17:28:29.649Z,45.69
2019-04-28T17:30:57.122Z,46.18
2019-04-28T17:33:24.626Z,46.16
2019-04-28T17:35:51.933Z,46.60
2019-04-28T17:38:19.391Z,46.66
2019-04-28T17:40:47.207Z,46.29
2019-04-28T17:43:14.837Z,45.73
2019-04-28T17:45:42.315Z,46.17
2019-04-28T17:48:22.268Z,45.85
2019-04-28T17:50:51.282Z,46.74
2019-04-28T17:53:25.655Z,46.19
2019-04-28T17:55:54.690Z,47.27
2019-04-28T17:58:22.348Z,47.79
2019-04-28T18:01:21.545Z,47.94
2019-04-28T18:04:17.455Z,48.13
2019-04-28T18:06:49.840Z,48.61
2019-04-28T18:09:18.321Z,48.04
2019-04-28T18:11:46.319Z,48.55
2019-04-28T18:14:14.897Z,48.82
2019-04-28T18:17:11.121Z,49.12
2019-04-28T18:19:42.122Z,48.20
2019-04-28T18:22:09.923Z,48.46
2019-04-28T18:24:40.006Z,49.22
2019-04-28T18:27:07.508Z,49.28
2019-04-28T18:29:35.288Z,48.58
2019-04-28T18:32:34.560Z,48.51
2019-04-28T18:35:08.725Z,48.52
2019-04-28T18:37:56.100Z,49.37
2019-04-28T18:40:45.773Z,49.85
2019-04-28T18:43:21.012Z,50.21
2019-04-28T18:45:48.706Z,49.33
2019-04-28T18:48:16.442Z,48.47
2019-04-28T18:50:44.017Z,49.50
2019-04-28T18:53:11.772Z,49.25
2019-04-28T18:55:39.445Z,49.97
2019-04-28T18:58:07.624Z,49.73
2019-04-28T19:00:43.281Z,50.89
2019-04-28T19:03:11.147Z,50.36
2019-04-28T19:05:42.090Z,50.64
2019-04-28T19:08:32.721Z,51.43
2019-04-28T19:11:22.890Z,51.06
2019-04-28T19:13:55.833Z,51.89
2019-04-28T19:16:49.123Z,51.05
2019-04-28T19:19:17.999Z,52.24
2019-04-28T19:21:56.412Z,51.95
2019-04-28T19:24:25.337Z,51.86
2019-04-28T19:26:53.175Z,52.89
2019-04-28T19:29:21.468Z,52.89
2019-04-28T19:31:49.440Z,52.22
2019-04-28T19:34:17.230Z,53.13
2019-04-28T19:36:45.148Z,53.43
2019-04-28T19:39:12.955Z,53.51
2019-04-28T19:41:40.817Z,53.46
2019-04-28T19:44:08.604Z,53.68
2019-04-28T19:46:36.397Z,54.01
2019-04-28T19:49:04.550Z,54.46
2019-04-28T19:51:32.628Z,55.58
2019-04-28T19:54:00.709Z,54.70
2019-04-28T19:56:36.941Z,55.33
2019-04-28T19:59:12.814Z,55.48
2019-04-28T20:01:40.826Z,55.83
2019-04-28T20:04:08.376Z,55.87
2019-04-28T20:06:36.126Z,55.97
2019-04-28T20:09:05.865Z,56.23
2019-04-28T20:11:33.806Z,55.60
2019-04-28T20:14:01.233Z,56.50
2019-04-28T20:16:28.669Z,56.76
2019-04-28T20:18:56.190Z,56.76
2019-04-28T20:21:23.762Z,57.14
2019-04-28T20:23:51.222Z,56.86
2019-04-28T20:26:18.651Z,59.13
2019-04-28T20:28:45.967Z,58.22
2019-04-28T20:31:13.269Z,60.04
2019-04-28T20:33:40.985Z,59.44
2019-04-28T20:36:15.072Z,58.61
2019-04-28T20:38:43.234Z,59.79
2019-04-28T20:41:22.397Z,59.82
2019-04-28T20:43:49.791Z,60.38
2019-04-28T20:46:17.198Z,60.41
2019-04-28T20:48:49.396Z,59.29
2019-04-28T20:51:17.332Z,59.71
2019-04-28T20:53:44.606Z,60.10
2019-04-28T20:56:11.884Z,60.50
2019-04-28T20:58:39.037Z,61.19
2019-04-28T21:01:06.341Z,60.98
2019-04-28T21:03:33.637Z,63.04
2019-04-28T21:06:00.931Z,62.25
2019-04-28T21:08:28.326Z,59.49
2019-04-28T21:10:55.635Z,59.00
2019-04-28T21:13:22.935Z,61.27
2019-04-28T21:15:50.118Z,60.86
2019-04-28T21:18:17.384Z,62.06
2019-04-28T21:20:44.668Z,60.01
2019-04-28T21:23:12.056Z,63.89
2019-04-28T21:25:39.337Z,62.07
2019-04-28T21:28:06.792Z,60.14
2019-04-28T21:30:39.453Z,62.07
2019-04-28T21:33:06.869Z,61.98
2019-04-28T21:35:33.960Z,62.25
2019-04-28T21:38:01.311Z,63.02
2019-04-28T21:40:28.907Z,60.75
2019-04-28T21:43:05.620Z,66.12
2019-04-28T21:46:01.543Z,61.83
2019-04-28T21:48:35.797Z,66.91
2019-04-28T21:51:03.386Z,67.87
2019-04-28T21:53:34.047Z,68.63
2019-04-28T21:56:01.408Z,69.84
2019-04-28T21:58:33.477Z,69.87
2019-04-28T22:00:58.189Z,68.63
2019-04-28T22:03:25.571Z,69.38
2019-04-28T22:05:52.918Z,69.78
2019-04-28T22:08:20.186Z,71.08
2019-04-28T22:10:47.553Z,72.45
2019-04-28T22:13:14.928Z,71.16
2019-04-28T22:15:42.123Z,70.95
2019-04-28T22:18:09.618Z,73.77
2019-04-28T22:20:36.833Z,71.75
2019-04-28T22:23:18.048Z,71.99
2019-04-28T22:25:36.058Z,72.70
2019-04-28T22:28:03.427Z,73.30
2019-04-28T22:30:30.798Z,73.17
2019-04-28T22:32:58.003Z,72.03
2019-04-28T22:35:25.473Z,71.02
2019-04-28T22:37:52.742Z,72.31
2019-04-28T22:40:20.129Z,71.69
2019-04-28T22:42:47.542Z,70.91
2019-04-28T22:45:15.261Z,73.26
2019-04-28T22:47:42.646Z,74.32
2019-04-28T22:50:33.749Z,72.47
2019-04-28T22:53:01.238Z,73.34
2019-04-28T22:55:30.040Z,72.09
2019-04-28T22:58:32.310Z,71.84
2019-04-28T23:01:05.558Z,73.04
2019-04-28T23:03:47.478Z,72.12
2019-04-28T23:06:15.052Z,72.66
2019-04-28T23:08:42.341Z,73.79
2019-04-28T23:11:09.697Z,74.37
2019-04-28T23:13:37.128Z,73.96
2019-04-28T23:16:04.631Z,72.25
2019-04-28T23:18:32.020Z,74.06
2019-04-28T23:21:02.857Z,72.61
2019-04-28T23:23:30.612Z,74.79
2019-04-28T23:25:57.742Z,72.83
2019-04-28T23:28:25.024Z,71.07
2019-04-28T23:30:52.187Z,75.34
2019-04-28T23:33:19.549Z,74.79
2019-04-28T23:35:46.919Z,74.80
2019-04-28T23:38:14.080Z,75.49
2019-04-28T23:40:57.098Z,76.17
2019-04-28T23:43:24.512Z,75.53
2019-04-28T23:45:51.684Z,77.40
2019-04-28T23:48:18.963Z,77.45
2019-04-28T23:51:00.964Z,77.74
2019-04-28T23:53:46.333Z,76.42
2019-04-28T23:56:13.920Z,77.82
2019-04-28T23:58:41.117Z,76.40
